^^
Saratoga-Weather Station Historical Data
Daily Summary for June 13, 2021 Units:  English    Metric   Both
Daily Weekly Monthly Yearly Custom
  High: Low: Average:
Temperature: 64.6 °F 32 °F 61.5 °F
Dew Point: 61.5 °F 32 °F 59.5 °F
Humidity: 95% % 93%
Wind Speed: 11mph 0mph 2.9mph
Wind Gust: 14mph - -
Wind- - West
Pressure: 29.8 in 29.8 in -
Precipitation: 0.89 in    
Historical Graphs
 
 
Tabular Data for June 13, 2021
Time Temperature Dew Point Pressure Wind Wind Speed Wind Gust Humidity Rainfall Rate (Hourly) solar
00:00 64.2 °F 61.2 °F 29.8 in Calm   2 mph 90% 0 in 0 W/m2
00:05 64 °F 61 °F 29.8 in Calm     90% 0 in 0 W/m2
00:10 64 °F 61 °F 29.8 in WNW 2 mph 2 mph 90% 0 in 0 W/m2
00:15 64 °F 61 °F 29.8 in West 2 mph 5 mph 90% 0 in 0 W/m2
00:20 64 °F 61 °F 29.8 in WNW 2 mph 5 mph 90% 0 in 0 W/m2
00:25 64.2 °F 61.2 °F 29.8 in West 0.9 mph 3 mph 90% 0 in 0 W/m2
00:30 64.4 °F 61.3 °F 29.8 in West 4 mph 6 mph 90% 0 in 0 W/m2
00:35 64.6 °F 61.5 °F 29.8 in WNW 2 mph 6 mph 90% 0 in 0 W/m2
00:40 64.6 °F 61.5 °F 29.8 in Calm   1 mph 90% 0 in 0 W/m2
00:45 64.4 °F 61.3 °F 29.8 in WSW 0.9 mph 5 mph 90% 0 in 0 W/m2
00:50 64.4 °F 61.3 °F 29.8 in West 0.9 mph 2 mph 90% 0 in 0 W/m2
00:55 64.4 °F 61.3 °F 29.8 in Calm   1 mph 90% 0 in 0 W/m2
01:01 64.2 °F 61.2 °F 29.8 in Calm     90% 0 in 0 W/m2
01:06 64.2 °F 61.2 °F 29.8 in Calm     90% 0 in 0 W/m2
01:11 64.2 °F 61.5 °F 29.8 in Calm     91% 0 in 0 W/m2
01:16 64.2 °F 61.5 °F 29.8 in Calm     91% 0 in 0 W/m2
01:21 64 °F 61.3 °F 29.8 in Calm     91% 0 in 0 W/m2
01:26 63.9 °F 61.2 °F 29.8 in Calm     91% 0 in 0 W/m2
01:31 63.9 °F 61.2 °F 29.8 in Calm     91% 0 in 0 W/m2
01:36 63.7 °F 61.3 °F 29.8 in Calm     92% 0 in 0 W/m2
01:41 63.7 °F 61.3 °F 29.8 in Calm     92% 0 in 0 W/m2
01:46 63.5 °F 61.2 °F 29.8 in Calm   2 mph 92% 0 in 0 W/m2
01:51 63.3 °F 61 °F 29.8 in Calm     92% 0 in 0 W/m2
01:56 63.3 °F 61 °F 29.8 in West 0.9 mph 1 mph 92% 0 in 0 W/m2
02:01 63.3 °F 61 °F 29.8 in West 0.9 mph 2 mph 92% 0 in 0 W/m2
02:06 63.3 °F 61 °F 29.8 in Calm   1 mph 92% 0 in 0 W/m2
02:11 63.5 °F 61.2 °F 29.8 in West 6 mph 6 mph 92% 0 in 0 W/m2
02:16 63.7 °F 61.3 °F 29.8 in West 2.9 mph 4 mph 92% 0 in 0 W/m2
02:21 63.7 °F 61.3 °F 29.8 in SW 2.9 mph 4 mph 92% 0 in 0 W/m2
02:26 63.7 °F 61 °F 29.8 in WNW 2.9 mph 4 mph 91% 0 in 0 W/m2
02:31 63.9 °F 61.2 °F 29.8 in West 2.9 mph 8 mph 91% 0 in 0 W/m2
02:36 63.7 °F 61 °F 29.8 in WNW 2.9 mph 6 mph 91% 0 in 0 W/m2
02:41 63.7 °F 61 °F 29.8 in West 6.9 mph 8 mph 91% 0 in 0 W/m2
02:46 63.7 °F 61 °F 29.8 in West 2.9 mph 8 mph 91% 0 in 0 W/m2
02:51 63.7 °F 61 °F 29.8 in WNW 0.9 mph 6 mph 91% 0 in 0 W/m2
02:56 63.7 °F 61 °F 29.8 in West 4 mph 8 mph 91% 0 in 0 W/m2
03:01 63.5 °F 60.8 °F 29.8 in WSW 4 mph 4 mph 91% 0 in 0 W/m2
03:06 63.3 °F 60.6 °F 29.8 in WSW 4.9 mph 7 mph 91% 0 in 0 W/m2
03:11 63.3 °F 60.6 °F 29.8 in SW 6 mph 6 mph 91% 0 in 0 W/m2
03:16 63.1 °F 60.8 °F 29.8 in WNW 4 mph 7 mph 92% 0 in 0 W/m2
03:21 63.1 °F 60.8 °F 29.8 in WSW 2.9 mph 5 mph 92% 0 in 0 W/m2
03:26 63.1 °F 60.8 °F 29.8 in WNW 4 mph 8 mph 92% 0 in 0 W/m2
03:31 63.1 °F 60.8 °F 29.8 in West 2 mph 9 mph 92% 0 in 0 W/m2
03:36 63.1 °F 60.8 °F 29.8 in WSW 2.9 mph 4 mph 92% 0 in 0 W/m2
03:41 63 °F 60.6 °F 29.8 in WNW 4 mph 9 mph 92% 0 in 0 W/m2
03:46 63 °F 60.6 °F 29.8 in WNW 0.9 mph 8 mph 92% 0 in 0 W/m2
03:51 62.8 °F 60.8 °F 29.8 in NW 4 mph 9 mph 93% 0 in 0 W/m2
03:56 62.6 °F 60.6 °F 29.8 in WSW 4 mph 7 mph 93% 0 in 0 W/m2
04:01 62.4 °F 60.4 °F 29.8 in WNW 2.9 mph 6 mph 93% 0 in 0 W/m2
04:06 62.4 °F 60.4 °F 29.8 in West 2.9 mph 4 mph 93% 0 in 0 W/m2
04:11 62.4 °F 60.4 °F 29.8 in West 2.9 mph 8 mph 93% 0 in 0 W/m2
04:16 62.2 °F 60.3 °F 29.8 in West 2.9 mph 7 mph 93% 0 in 0 W/m2
04:21 62.2 °F 60.3 °F 29.8 in WNW 6 mph 8 mph 93% 0 in 0 W/m2
04:26 62.2 °F 60.3 °F 29.8 in WSW 2 mph 8 mph 93% 0 in 0 W/m2
04:31 62.2 °F 60.3 °F 29.8 in WSW 4.9 mph 8 mph 93% 0 in 0 W/m2
04:36 62.2 °F 60.3 °F 29.8 in WSW 4.9 mph 9 mph 93% 0 in 0 W/m2
04:41 62.2 °F 60.3 °F 29.8 in West 2.9 mph 10 mph 93% 0 in 0 W/m2
04:46 62.2 °F 60.3 °F 29.8 in West 2.9 mph 6 mph 93% 0 in 0 W/m2
04:51 62.2 °F 60.3 °F 29.8 in West 8.1 mph 9 mph 93% 0 in 0 W/m2
04:56 62.2 °F 60.3 °F 29.8 in West 6 mph 8 mph 93% 0 in 0 W/m2
05:01 62.2 °F 60.3 °F 29.8 in WNW 4 mph 9 mph 93% 0 in 0 W/m2
05:06 62.2 °F 60.3 °F 29.8 in West 8.9 mph 9 mph 93% 0 in 0 W/m2
05:11 62.2 °F 60.3 °F 29.8 in West 8.1 mph 8 mph 93% 0 in 0 W/m2
05:16 62.2 °F 60.3 °F 29.8 in West 6 mph 9 mph 93% 0 in 0 W/m2
05:21 62.2 °F 60.3 °F 29.8 in West 4 mph 7 mph 93% 0 in 0 W/m2
05:26 62.2 °F 60.3 °F 29.8 in West 6 mph 8 mph 93% 0 in 0 W/m2
05:31 62.2 °F 60.3 °F 29.8 in West 4 mph 10 mph 93% 0 in 0 W/m2
05:36 62.2 °F 60.3 °F 29.8 in WNW 2 mph 10 mph 93% 0 in 0 W/m2
05:41 62.2 °F 60.4 °F 29.8 in WNW 8.1 mph 9 mph 94% 0 in 0 W/m2
05:46 62.1 °F 60.3 °F 29.8 in WNW 2.9 mph 10 mph 94% 0 in 0 W/m2
05:51 62.1 °F 60.3 °F 29.8 in WSW 4 mph 8 mph 94% 0 in 0 W/m2
05:56 62.1 °F 60.3 °F 29.8 in WNW 4.9 mph 10 mph 94% 0 in 0 W/m2
06:01 62.1 °F 60.3 °F 29.8 in West 2.9 mph 7 mph 94% 0.01 in 0 W/m2
06:06 61.9 °F 60.1 °F 29.8 in WSW 4.9 mph 10 mph 94% 0.02 in 0 W/m2
06:11 61.9 °F 60.1 °F 29.8 in WNW 2.9 mph 11 mph 94% 0.02 in 0 W/m2
06:16 61.7 °F 59.9 °F 29.8 in West 2 mph 5 mph 94% 0.03 in 0 W/m2
06:21 61.7 °F 59.9 °F 29.8 in West 6 mph 11 mph 94% 0.03 in 0 W/m2
06:26 61.5 °F 59.7 °F 29.8 in WSW 6.9 mph 7 mph 94% 0.04 in 0 W/m2
06:31 61.5 °F 60.1 °F 29.8 in NW 2 mph 8 mph 95% 0.06 in 5 W/m2
06:36 61.5 °F 60.1 °F 29.8 in WNW 4 mph 7 mph 95% 0.06 in 5 W/m2
06:41 61.5 °F 60.1 °F 29.8 in WNW 4.9 mph 5 mph 95% 0.08 in 5 W/m2
06:46 61.3 °F 59.9 °F 29.8 in WNW 4 mph 6 mph 95% 0.09 in 5 W/m2
06:51 61.3 °F 59.9 °F 29.8 in West 2 mph 9 mph 95% 0.1 in 9 W/m2
06:56 61.3 °F 59.9 °F 29.8 in West 2.9 mph 8 mph 95% 0.11 in 12 W/m2
07:01 61.3 °F 59.9 °F 29.8 in West 2 mph 9 mph 95% 0.1 in 21 W/m2
07:06 61.3 °F 59.9 °F 29.8 in WSW 2.9 mph 8 mph 95% 0.1 in 26 W/m2
07:11 61.3 °F 59.9 °F 29.8 in West 2.9 mph 6 mph 95% 0.09 in 37 W/m2
07:16 61.5 °F 60.1 °F 29.8 in West 2.9 mph 6 mph 95% 0.09 in 62 W/m2
07:21 61.5 °F 60.1 °F 29.8 in WNW 2 mph 9 mph 95% 0.09 in 74 W/m2
07:26 61.5 °F 60.1 °F 29.8 in WNW 2 mph 4 mph 95% 0.08 in 90 W/m2
07:31 61.9 °F 60.4 °F 29.8 in WNW 2 mph 3 mph 95% 0.06 in 77 W/m2
07:36 61.9 °F 60.4 °F 29.8 in WSW 4 mph 6 mph 95% 0.06 in 56 W/m2
07:42 61.9 °F 60.4 °F 29.8 in West 2.9 mph 9 mph 95% 0.04 in 51 W/m2
07:47 61.9 °F 60.4 °F 29.8 in West 4 mph 7 mph 95% 0.02 in 49 W/m2
07:52 61.9 °F 60.4 °F 29.8 in WNW 2.9 mph 7 mph 95% 0.02 in 33 W/m2
07:57 61.9 °F 60.4 °F 29.8 in WSW 2.9 mph 6 mph 95% 0.01 in 26 W/m2
08:02 61.9 °F 60.4 °F 29.8 in WSW 2.9 mph 8 mph 95% 0.01 in 23 W/m2
08:07 61.9 °F 60.4 °F 29.8 in WNW 4 mph 4 mph 95% 0 in 23 W/m2
08:12 61.9 °F 60.4 °F 29.8 in WNW 6.9 mph 7 mph 95% 0 in 25 W/m2
08:17 61.9 °F 60.4 °F 29.8 in West 2 mph 9 mph 95% 0 in 28 W/m2
08:22 61.9 °F 60.4 °F 29.8 in West 0.9 mph 6 mph 95% 0.01 in 37 W/m2
08:27 61.9 °F 60.4 °F 29.8 in WNW 4 mph 7 mph 95% 0.01 in 39 W/m2
08:32 61.9 °F 60.4 °F 29.8 in WNW 2.9 mph 6 mph 95% 0.01 in 39 W/m2
08:37 61.9 °F 60.4 °F 29.8 in NW 4 mph 6 mph 95% 0.01 in 46 W/m2
08:42 61.9 °F 60.4 °F 29.8 in West 2 mph 3 mph 95% 0.01 in 42 W/m2
08:47 62.1 °F 60.6 °F 29.8 in West 4 mph 9 mph 95% 0.01 in 37 W/m2
08:52 61.9 °F 60.1 °F 29.8 in WNW 2 mph 7 mph 94% 0.01 in 39 W/m2
08:57 61.9 °F 60.1 °F 29.8 in West 6 mph 9 mph 94% 0.01 in 44 W/m2
09:02 61.9 °F 60.1 °F 29.8 in WNW 4.9 mph 7 mph 94% 0.01 in 46 W/m2
09:07 61.9 °F 60.1 °F 29.8 in WNW 2.9 mph 6 mph 94% 0.01 in 46 W/m2
09:12 61.9 °F 60.1 °F 29.8 in WNW 2.9 mph 4 mph 94% 0.01 in 47 W/m2
09:17 61.7 °F 59.9 °F 29.8 in NW 0.9 mph 5 mph 94% 0.01 in 46 W/m2
09:22 61.7 °F 59.9 °F 29.8 in West 4 mph 5 mph 94% 0.01 in 37 W/m2
09:27 61.7 °F 60.3 °F 29.8 in West 2.9 mph 6 mph 95% 0.01 in 37 W/m2
09:32 61.5 °F 60.1 °F 29.8 in West 6 mph 6 mph 95% 0.01 in 46 W/m2
09:37 61.5 °F 60.1 °F 29.8 in West 2.9 mph 4 mph 95% 0.01 in 53 W/m2
09:42 61.5 °F 60.1 °F 29.8 in WNW 2.9 mph 6 mph 95% 0.01 in 54 W/m2
09:47 61.5 °F 60.1 °F 29.8 in NW 2.9 mph 7 mph 95% 0.01 in 53 W/m2
09:52 61.5 °F 60.1 °F 29.8 in West 2.9 mph 7 mph 95% 0.01 in 53 W/m2
09:57 61.5 °F 60.1 °F 29.8 in NW 4 mph 7 mph 95% 0.01 in 53 W/m2
10:02 61.5 °F 60.1 °F 29.8 in WNW 2.9 mph 6 mph 95% 0.01 in 53 W/m2
10:07 32 °F 32 °F 29.8 in WNW 4 mph 8 mph % 0.01 in W/m2
10:12 61.5 °F 60.1 °F 29.8 in West 2.9 mph 3 mph 95% 0.03 in 40 W/m2
10:17 61.5 °F 60.1 °F 29.8 in WNW 4 mph 8 mph 95% 0.03 in 53 W/m2
10:22 61.5 °F 60.1 °F 29.8 in West 2 mph 7 mph 95% 0.02 in 54 W/m2
10:27 61.5 °F 59.7 °F 29.8 in WSW 4.9 mph 8 mph 94% 0.03 in 46 W/m2
10:32 61.5 °F 59.7 °F 29.8 in WNW 8.1 mph 9 mph 94% 0.04 in 53 W/m2
10:37 61.5 °F 59.7 °F 29.8 in West 2 mph 7 mph 94% 0.05 in 70 W/m2
10:42 61.3 °F 59.5 °F 29.8 in West 4 mph 7 mph 94% 0.06 in 60 W/m2
10:47 61.3 °F 59.5 °F 29.8 in WSW 2.9 mph 8 mph 94% 0.06 in 54 W/m2
10:52 61.3 °F 59.5 °F 29.8 in WNW 2.9 mph 9 mph 94% 0.06 in 79 W/m2
10:57 61.3 °F 59.5 °F 29.8 in West 2.9 mph 8 mph 94% 0.07 in 79 W/m2
11:02 61.3 °F 59.5 °F 29.8 in West 2.9 mph 5 mph 94% 0.07 in 70 W/m2
11:07 61.3 °F 59.9 °F 29.8 in NW 2.9 mph 6 mph 95% 0.08 in 76 W/m2
11:12 61.3 °F 59.9 °F 29.8 in West 2 mph 7 mph 95% 0.06 in 67 W/m2
11:17 61.3 °F 59.9 °F 29.8 in WNW 4 mph 5 mph 95% 0.06 in 72 W/m2
11:22 61.3 °F 59.5 °F 29.8 in NW 2.9 mph 8 mph 94% 0.08 in 69 W/m2
11:27 61.3 °F 59.5 °F 29.8 in NW 2 mph 6 mph 94% 0.09 in 65 W/m2
11:32 61.3 °F 59.5 °F 29.8 in West 2 mph 5 mph 94% 0.09 in 67 W/m2
11:37 61.3 °F 59.9 °F 29.8 in WNW 2 mph 4 mph 95% 0.09 in 58 W/m2
11:42 61.3 °F 59.5 °F 29.8 in WNW 2 mph 4 mph 94% 0.1 in 56 W/m2
11:47 61.3 °F 59.5 °F 29.8 in WNW 2 mph 7 mph 94% 0.1 in 60 W/m2
11:52 61.3 °F 59.5 °F 29.8 in SW 2 mph 10 mph 94% 0.11 in 67 W/m2
11:57 61.3 °F 59.5 °F 29.8 in WSW 2.9 mph 6 mph 94% 0.11 in 81 W/m2
12:02 61.3 °F 59.5 °F 29.8 in WNW 2 mph 6 mph 94% 0.12 in 95 W/m2
12:07 61.3 °F 59.5 °F 29.8 in WNW 4 mph 8 mph 94% 0.13 in 109 W/m2
12:12 61.3 °F 59.5 °F 29.8 in WNW 8.1 mph 9 mph 94% 0.14 in 125 W/m2
12:17 61.3 °F 59.5 °F 29.8 in WNW 2.9 mph 8 mph 94% 0.14 in 148 W/m2
12:22 61.5 °F 60.1 °F 29.8 in WNW 6.9 mph 8 mph 95% 0.14 in 174 W/m2
12:27 61.5 °F 60.1 °F 29.8 in NW 2 mph 12 mph 95% 0.13 in 174 W/m2
12:32 61.5 °F 60.1 °F 29.8 in WNW 8.1 mph 12 mph 95% 0.13 in 179 W/m2
12:37 61.5 °F 60.1 °F 29.8 in West 6 mph 8 mph 95% 0.13 in 142 W/m2
12:42 61.5 °F 59.7 °F 29.8 in NW 2.9 mph 12 mph 94% 0.12 in 113 W/m2
12:47 61.5 °F 59.7 °F 29.8 in WNW 8.1 mph 8 mph 94% 0.12 in 88 W/m2
12:52 61.3 °F 59.5 °F 29.8 in WNW 4 mph 11 mph 94% 0.12 in 107 W/m2
12:57 61.3 °F 59.5 °F 29.8 in West 6 mph 9 mph 94% 0.12 in 139 W/m2
13:02 61.3 °F 59.5 °F 29.8 in WNW 2.9 mph 9 mph 94% 0.13 in 158 W/m2
13:07 61.5 °F 59.7 °F 29.8 in WNW 6 mph 12 mph 94% 0.12 in 162 W/m2
13:12 61.5 °F 59.7 °F 29.8 in WNW 4.9 mph 12 mph 94% 0.11 in 149 W/m2
13:17 61.5 °F 60.1 °F 29.8 in West 2.9 mph 10 mph 95% 0.11 in 142 W/m2
13:22 61.5 °F 60.1 °F 29.8 in WNW 6.9 mph 9 mph 95% 0.1 in 141 W/m2
13:27 61.5 °F 60.1 °F 29.8 in NNW 4.9 mph 10 mph 95% 0.1 in 128 W/m2
13:32 61.5 °F 59.7 °F 29.8 in NW 4 mph 7 mph 94% 0.11 in 130 W/m2
13:37 61.7 °F 60.3 °F 29.8 in WSW 4 mph 8 mph 95% 0.11 in 135 W/m2
13:42 61.7 °F 60.3 °F 29.8 in WNW 8.9 mph 9 mph 95% 0.11 in 123 W/m2
13:47 61.7 °F 59.9 °F 29.8 in WNW 4 mph 8 mph 94% 0.11 in 113 W/m2
13:52 61.5 °F 59.7 °F 29.8 in NW 4.9 mph 11 mph 94% 0.11 in 107 W/m2
13:57 61.5 °F 59.7 °F 29.8 in West 2.9 mph 7 mph 94% 0.11 in 104 W/m2
14:02 61.3 °F 59.5 °F 29.8 in NW 2.9 mph 7 mph 94% 0.1 in 95 W/m2
14:07 61.3 °F 59.5 °F 29.8 in West 2 mph 8 mph 94% 0.1 in 90 W/m2
14:12 61.3 °F 59.5 °F 29.8 in WSW 2.9 mph 7 mph 94% 0.09 in 84 W/m2
14:17 61.3 °F 59.5 °F 29.8 in NNW 2.9 mph 7 mph 94% 0.09 in 79 W/m2
14:22 61.3 °F 59.5 °F 29.8 in WNW 6.9 mph 10 mph 94% 0.11 in 77 W/m2
14:27 61.2 °F 59.4 °F 29.8 in WNW 2.9 mph 7 mph 94% 0.11 in 79 W/m2
14:32 61.2 °F 59.4 °F 29.8 in NW 0.9 mph 7 mph 94% 0.11 in 63 W/m2
14:37 61.2 °F 59.4 °F 29.8 in NW 2.9 mph 9 mph 94% 0.12 in 54 W/m2
14:42 61.2 °F 59.4 °F 29.8 in West 2 mph 5 mph 94% 0.13 in 62 W/m2
14:47 61 °F 59.2 °F 29.8 in WNW 4.9 mph 10 mph 94% 0.14 in 76 W/m2
14:52 61 °F 59.2 °F 29.8 in WSW 6.9 mph 7 mph 94% 0.15 in 84 W/m2
14:57 61 °F 59.2 °F 29.8 in SSW 2.9 mph 10 mph 94% 0.15 in 90 W/m2
15:02 61 °F 59.2 °F 29.8 in WNW 4.9 mph 10 mph 94% 0.16 in 91 W/m2
15:08 61 °F 59.2 °F 29.8 in NW 11 mph 11 mph 94% 0.16 in 83 W/m2
15:13 60.8 °F 59 °F 29.8 in West 6 mph 9 mph 94% 0.17 in 79 W/m2
15:18 60.8 °F 59 °F 29.8 in WNW 4 mph 11 mph 94% 0.16 in 76 W/m2
15:23 60.8 °F 59 °F 29.8 in West 2.9 mph 9 mph 94% 0.15 in 58 W/m2
15:28 60.8 °F 59 °F 29.8 in NNW 4 mph 7 mph 94% 0.16 in 54 W/m2
15:33 60.8 °F 59 °F 29.8 in NW 4.9 mph 14 mph 94% 0.15 in 67 W/m2
15:38 60.6 °F 58.8 °F 29.8 in NW 2.9 mph 10 mph 94% 0.16 in 77 W/m2
15:43 60.6 °F 58.8 °F 29.8 in WSW 4.9 mph 8 mph 94% 0.16 in 77 W/m2
15:48 60.6 °F 58.8 °F 29.8 in WNW 4.9 mph 10 mph 94% 0.15 in 81 W/m2
15:53 60.6 °F 58.8 °F 29.8 in WNW 4 mph 9 mph 94% 0.15 in 83 W/m2
15:58 60.6 °F 59.2 °F 29.8 in WSW 2.9 mph 10 mph 95% 0.15 in 86 W/m2
16:03 60.6 °F 58.8 °F 29.8 in SW 4 mph 13 mph 94% 0.14 in 95 W/m2
16:08 60.8 °F 59 °F 29.8 in NW 2 mph 8 mph 94% 0.13 in 102 W/m2
16:13 61 °F 59.2 °F 29.8 in NW 2 mph 10 mph 94% 0.13 in 102 W/m2
16:18 61 °F 59.2 °F 29.8 in Calm   8 mph 94% 0.13 in 100 W/m2
16:23 61 °F 59.2 °F 29.8 in West 6 mph 8 mph 94% 0.12 in 97 W/m2
16:28 61 °F 59.2 °F 29.8 in West 6 mph 7 mph 94% 0.11 in 111 W/m2
16:33 61 °F 59.2 °F 29.8 in NW 6.9 mph 12 mph 94% 0.1 in 134 W/m2
16:38 61.2 °F 59.4 °F 29.8 in West 6 mph 9 mph 94% 0.07 in 163 W/m2
16:43 61.2 °F 59.4 °F 29.8 in WSW 8.9 mph 10 mph 94% 0.06 in 183 W/m2
16:48 61.2 °F 59.4 °F 29.8 in WNW 6.9 mph 8 mph 94% 0.05 in 195 W/m2
16:53 61.2 °F 59.4 °F 29.8 in West 4 mph 13 mph 94% 0.04 in 199 W/m2
16:58 61.2 °F 59.4 °F 29.8 in West 0.9 mph 10 mph 94% 0.04 in 211 W/m2
17:03 61.3 °F 59.9 °F 29.8 in SE 0.9 mph 11 mph 95% 0.03 in 142 W/m2
17:08 61.5 °F 60.1 °F 29.8 in NW 0.9 mph 3 mph 95% 0.03 in 100 W/m2
17:13 61.3 °F 59.5 °F 29.8 in West 2 mph 6 mph 94% 0.02 in 53 W/m2
17:18 61.3 °F 59.5 °F 29.8 in WNW 0.9 mph 1 mph 94% 0.02 in 46 W/m2
17:23 61.3 °F 59.5 °F 29.8 in West 2.9 mph 4 mph 94% 0.02 in 46 W/m2
17:28 61.2 °F 59.4 °F 29.8 in North 4 mph 5 mph 94% 0.02 in 46 W/m2
17:33 61 °F 59.2 °F 29.8 in NW 0.9 mph 1 mph 94% 0.02 in 44 W/m2
17:38 61 °F 59.2 °F 29.8 in NW 2.9 mph 8 mph 94% 0.02 in 39 W/m2
17:43 60.8 °F 59 °F 29.8 in NW 2.9 mph 6 mph 94% 0.02 in 44 W/m2
17:48 60.6 °F 58.8 °F 29.8 in NW 2.9 mph 8 mph 94% 0.02 in 67 W/m2
17:53 60.4 °F 58.6 °F 29.8 in West 0.9 mph 6 mph 94% 0.01 in 139 W/m2
17:58 60.4 °F 58.6 °F 29.8 in WNW 2.9 mph 7 mph 94% 0.01 in 91 W/m2
18:03 60.6 °F 58.8 °F 29.8 in West 2 mph 3 mph 94% 0.01 in 111 W/m2
18:08 60.6 °F 58.8 °F 29.8 in WSW 0.9 mph 5 mph 94% 0.01 in 83 W/m2
18:13 60.6 °F 58.8 °F 29.8 in NW 2.9 mph 7 mph 94% 0.01 in 104 W/m2
18:18 60.6 °F 58.8 °F 29.8 in Calm   4 mph 94% 0.01 in 81 W/m2
18:23 60.8 °F 58.8 °F 29.8 in WNW 2 mph 4 mph 93% 0 in 90 W/m2
18:28 60.8 °F 58.8 °F 29.8 in WNW 2.9 mph 7 mph 93% 0 in 70 W/m2
18:33 60.8 °F 58.8 °F 29.8 in North 0.9 mph 2 mph 93% 0 in 69 W/m2
18:38 61 °F 59.2 °F 29.8 in NNW 0.9 mph 4 mph 94% 0 in 51 W/m2
18:43 61 °F 59 °F 29.8 in NW 2 mph 7 mph 93% 0 in 56 W/m2
18:48 61 °F 59.2 °F 29.8 in WNW 2 mph 4 mph 94% 0 in 60 W/m2
18:53 61 °F 59.2 °F 29.8 in Calm   7 mph 94% 0 in 51 W/m2
18:58 61 °F 59.2 °F 29.8 in NW 0.9 mph 2 mph 94% 0 in 39 W/m2
19:03 61 °F 59.2 °F 29.8 in NNE 2.9 mph 5 mph 94% 0 in 33 W/m2
19:08 61 °F 59 °F 29.8 in WNW 2 mph 5 mph 93% 0 in 30 W/m2
19:13 60.8 °F 59 °F 29.8 in Calm   2 mph 94% 0 in 30 W/m2
19:18 60.6 °F 58.8 °F 29.8 in NW 0.9 mph 3 mph 94% 0 in 35 W/m2
19:23 60.4 °F 58.6 °F 29.8 in West 2.9 mph 11 mph 94% 0 in 37 W/m2
19:28 60.4 °F 58.6 °F 29.8 in Calm   6 mph 94% 0 in 26 W/m2
19:33 60.4 °F 58.6 °F 29.8 in Calm   9 mph 94% 0 in 21 W/m2
19:38 60.3 °F 58.5 °F 29.8 in NNW 0.9 mph 2 mph 94% 0 in 19 W/m2
19:43 60.3 °F 58.5 °F 29.8 in NNE 0.9 mph 2 mph 94% 0 in 30 W/m2
19:48 60.3 °F 58.5 °F 29.8 in NNW 4.9 mph 5 mph 94% 0 in 33 W/m2
19:53 60.3 °F 58.5 °F 29.8 in ENE 2 mph 4 mph 94% 0 in 32 W/m2
19:58 60.1 °F 58.3 °F 29.8 in ENE 0.9 mph 2 mph 94% 0 in 23 W/m2
20:03 60.3 °F 58.5 °F 29.8 in North 2 mph 2 mph 94% 0 in 19 W/m2
20:08 60.1 °F 58.3 °F 29.8 in Calm     94% 0 in 16 W/m2
20:14 60.1 °F 58.3 °F 29.8 in WNW 4 mph 7 mph 94% 0 in 16 W/m2
20:19 60.1 °F 58.3 °F 29.8 in Calm   4 mph 94% 0 in 14 W/m2
20:24 60.3 °F 58.5 °F 29.8 in NNW 2 mph 7 mph 94% 0 in 18 W/m2
20:29 60.3 °F 58.5 °F 29.8 in Calm   1 mph 94% 0 in 18 W/m2
20:34 60.3 °F 58.5 °F 29.8 in WNW 0.9 mph 3 mph 94% 0 in 21 W/m2
20:39 60.3 °F 58.5 °F 29.8 in Calm   2 mph 94% 0 in 21 W/m2
20:44 60.3 °F 58.5 °F 29.8 in Calm   3 mph 94% 0 in 19 W/m2
20:49 60.3 °F 58.5 °F 29.8 in Calm   7 mph 94% 0 in 14 W/m2
20:54 60.3 °F 58.5 °F 29.8 in NW 0.9 mph 2 mph 94% 0 in 11 W/m2
20:59 60.3 °F 58.5 °F 29.8 in East 0.9 mph 7 mph 94% 0 in 5 W/m2
21:04 60.3 °F 58.5 °F 29.8 in NNW 0.9 mph 3 mph 94% 0 in 0 W/m2
21:09 60.3 °F 58.5 °F 29.8 in Calm   2 mph 94% 0 in 5 W/m2
21:14 60.3 °F 58.5 °F 29.8 in NNE 0.9 mph 1 mph 94% 0 in 0 W/m2
21:19 60.3 °F 58.5 °F 29.8 in ESE 0.9 mph 4 mph 94% 0 in 0 W/m2
21:24 60.3 °F 58.5 °F 29.8 in East 2.9 mph 4 mph 94% 0 in 0 W/m2
21:29 60.3 °F 58.5 °F 29.8 in Calm   2 mph 94% 0 in 0 W/m2
21:34 60.3 °F 58.5 °F 29.8 in West 2 mph 4 mph 94% 0 in 0 W/m2
21:39 60.3 °F 58.5 °F 29.8 in North 0.9 mph 2 mph 94% 0 in 0 W/m2
21:44 60.3 °F 58.5 °F 29.8 in Calm     94% 0 in 0 W/m2
21:49 60.3 °F 58.5 °F 29.8 in WNW 4.9 mph 5 mph 94% 0 in 0 W/m2
21:54 60.3 °F 58.5 °F 29.8 in WNW 0.9 mph 3 mph 94% 0 in 0 W/m2
21:59 60.3 °F 58.5 °F 29.8 in NW 7 mph 7 mph 94% 0 in 0 W/m2
22:04 60.3 °F 58.5 °F 29.8 in North 0.9 mph 4 mph 94% 0 in 0 W/m2
22:09 60.3 °F 58.5 °F 29.8 in NNW 2 mph 2 mph 94% 0 in 0 W/m2
22:14 60.3 °F 58.5 °F 29.8 in Calm   4 mph 94% 0 in 0 W/m2
22:19 60.3 °F 58.5 °F 29.8 in Calm   1 mph 94% 0 in 0 W/m2
22:24 60.3 °F 58.5 °F 29.8 in NE 0.9 mph 1 mph 94% 0 in 0 W/m2
22:29 60.3 °F 58.5 °F 29.8 in NNE 0.9 mph 2 mph 94% 0 in 0 W/m2
22:34 60.3 °F 58.5 °F 29.8 in NW 2 mph 3 mph 94% 0 in 0 W/m2
22:39 60.3 °F 58.5 °F 29.8 in NW 0.9 mph 2 mph 94% 0 in 0 W/m2
22:44 60.3 °F 58.5 °F 29.8 in North 2.9 mph 4 mph 94% 0 in 0 W/m2
22:49 60.3 °F 58.5 °F 29.8 in WNW 0.9 mph 2 mph 94% 0 in 0 W/m2
22:54 60.3 °F 58.5 °F 29.8 in NNW 2 mph 4 mph 94% 0 in 0 W/m2
22:59 60.3 °F 58.5 °F 29.8 in NW 2 mph 3 mph 94% 0 in 0 W/m2
23:04 60.3 °F 58.5 °F 29.8 in WNW 4 mph 6 mph 94% 0 in 0 W/m2
23:09 60.3 °F 58.5 °F 29.8 in NW 0.9 mph 4 mph 94% 0 in 0 W/m2
23:14 60.3 °F 58.5 °F 29.8 in NW 2.9 mph 7 mph 94% 0 in 0 W/m2
23:19 60.1 °F 58.3 °F 29.8 in NW 2.9 mph 5 mph 94% 0 in 0 W/m2
23:24 60.1 °F 58.3 °F 29.8 in WNW 2 mph 7 mph 94% 0 in 0 W/m2
23:29 60.1 °F 58.3 °F 29.8 in WNW 0.9 mph 6 mph 94% 0 in 0 W/m2
23:34 60.1 °F 58.3 °F 29.8 in Calm   4 mph 94% 0 in 0 W/m2
23:39 60.1 °F 58.3 °F 29.8 in Calm   4 mph 94% 0 in 0 W/m2
23:44 59.9 °F 58.1 °F 29.8 in Calm   3 mph 94% 0 in 0 W/m2
23:49 59.9 °F 58.5 °F 29.8 in West 2 mph 3 mph 95% 0 in 0 W/m2
23:54 59.9 °F 58.5 °F 29.8 in NW 2 mph 4 mph 95% 0 in 0 W/m2
23:59 59.9 °F 58.5 °F 29.8 in WNW 2 mph 4 mph 95% 0 in 0 W/m2
Juneau County Weather
Compliments of Weather Underground - 4 mb